NEOK1: Neosho R at Neosho Rapids, KS

                                SHEF ID:       NEOK1     NEOSHO R AT NEOSHO RAPIDS, KS
STATION TYPE:

STAGE RIV-FLOW BAT-LOAD
ft cfs volt
Ccp-Rev Ccp-Rev Ccp-Rev
(America/Chicago)
04/27 00:00 9.72 5561 12.50
04/27 01:00 9.75 5585 12.48
04/27 02:00 9.79 5617 12.44
04/27 03:00 9.84 5657 12.42
04/27 04:00 9.94 5737 12.40
04/27 05:00 10.14 5897 12.40
04/27 06:00 10.45 6149 12.40
04/27 07:00 10.90 6519 12.39
04/27 08:00 11.46 6987 12.40
04/27 09:00 12.12 7550 12.80
04/27 10:00 12.84 8177 13.23
04/27 11:00 13.63 8880 13.16
04/27 12:00 14.44 9617 ----
04/27 13:00 15.20 10322 13.06
04/27 14:00 15.81 10898 12.96
04/27 15:00 16.33 11395 12.93
04/27 16:00 16.79 11840 12.90
04/27 17:00 17.17 12211 12.94
04/27 18:00 17.54 12575 12.93
04/27 19:00 17.87 12902 12.86
04/27 20:00 18.20 13232 12.71
04/27 21:00 18.49 13523 12.61
04/27 22:00 18.77 13806 12.57
04/27 23:00 19.04 14080 12.53
Data processed at Tue 28Apr2026 04:36 GMT

NOTICE: If you are parsing this page

Please convert to using our Data API. Starting early 2026 we will be migrating to: https://water.usace.army.mil with modern pages rendered in JavaScript. When this migration completes you will no longer be able to scrape this page! CWMSDataAPI (CDA)

Timeseries IDs (TSIDs)

TSIDs used from left to right in the data table
NEOR.Stage.Inst.1Hour.0.Ccp-Rev
NEOR.Flow.Inst.1Hour.0.Ccp-Rev
NEOR.Volt-Battery Load.Inst.1Hour.0.Ccp-Rev

                            

All information presented herein is the property of the government of the United States of America and may be revised or deleted at any time without prior notice. Dissemination of this information without the expressed written consent of the Public Affairs Office, Tulsa District U.S. Army Corps of Engineers is strictly prohibited. These data are gathered electronically and, as presented, have NOT undergone any form of quality control. These data are NOT guaranteed to be valid or correct.